sensor_id;sensor_type;location;lat;lon;timestamp;pressure;altitude;pressure_sealevel;temperature;humidity
38616;BME280;24370;51.986;4.666;2022-09-02T00:01:30;101780.09;;;26.98;26.77
38616;BME280;24370;51.986;4.666;2022-09-02T00:04:00;101786.75;;;26.49;27.85
38616;BME280;24370;51.986;4.666;2022-09-02T00:06:27;101787.34;;;27.52;26.97
38616;BME280;24370;51.986;4.666;2022-09-02T00:08:53;101785.31;;;27.29;26.76
38616;BME280;24370;51.986;4.666;2022-09-02T00:11:23;101781.72;;;27.01;27.25
38616;BME280;24370;51.986;4.666;2022-09-02T00:13:49;101781.19;;;27.37;27.54
38616;BME280;24370;51.986;4.666;2022-09-02T00:16:15;101768.66;;;27.51;27.21
38616;BME280;24370;51.986;4.666;2022-09-02T00:18:41;101779.31;;;26.54;27.96
38616;BME280;24370;51.986;4.666;2022-09-02T00:21:09;101774.66;;;27.41;27.73
38616;BME280;24370;51.986;4.666;2022-09-02T00:23:38;101768.94;;;27.19;27.21
38616;BME280;24370;51.986;4.666;2022-09-02T00:26:03;101774.31;;;27.19;27.03
38616;BME280;24370;51.986;4.666;2022-09-02T00:28:29;101767.03;;;27.21;27.02
38616;BME280;24370;51.986;4.666;2022-09-02T00:30:55;101764.16;;;26.82;27.65
38616;BME280;24370;51.986;4.666;2022-09-02T00:33:20;101764.13;;;26.97;27.64
38616;BME280;24370;51.986;4.666;2022-09-02T00:35:45;101764.84;;;26.42;27.94
38616;BME280;24370;51.986;4.666;2022-09-02T00:38:11;101761.00;;;27.17;27.36
38616;BME280;24370;51.986;4.666;2022-09-02T00:40:37;101760.91;;;26.63;27.79
38616;BME280;24370;51.986;4.666;2022-09-02T00:43:07;101765.88;;;26.40;27.90
38616;BME280;24370;51.986;4.666;2022-09-02T00:45:33;101763.75;;;26.88;27.78
38616;BME280;24370;51.986;4.666;2022-09-02T00:47:59;101741.03;;;27.21;27.19
38616;BME280;24370;51.986;4.666;2022-09-02T00:50:28;101757.28;;;26.35;28.40
38616;BME280;24370;51.986;4.666;2022-09-02T00:52:59;101754.31;;;26.39;28.16
38616;BME280;24370;51.986;4.666;2022-09-02T00:55:29;101751.53;;;26.12;28.35
38616;BME280;24370;51.986;4.666;2022-09-02T00:58:02;101750.28;;;26.18;28.24
38616;BME280;24370;51.986;4.666;2022-09-02T01:00:34;101749.53;;;26.30;28.60
38616;BME280;24370;51.986;4.666;2022-09-02T01:03:02;101753.06;;;26.45;28.16
38616;BME280;24370;51.986;4.666;2022-09-02T01:05:31;101748.22;;;26.94;27.55
38616;BME280;24370;51.986;4.666;2022-09-02T01:07:58;101746.72;;;26.89;27.41
38616;BME280;24370;51.986;4.666;2022-09-02T01:10:27;101743.06;;;26.90;27.59
38616;BME280;24370;51.986;4.666;2022-09-02T01:12:55;101746.72;;;26.03;28.48
38616;BME280;24370;51.986;4.666;2022-09-02T01:15:22;101745.22;;;26.56;28.26
38616;BME280;24370;51.986;4.666;2022-09-02T01:17:49;101745.97;;;26.15;28.60
38616;BME280;24370;51.986;4.666;2022-09-02T01:20:18;101746.56;;;25.45;29.21
38616;BME280;24370;51.986;4.666;2022-09-02T01:22:45;101742.16;;;25.74;29.30
38616;BME280;24370;51.986;4.666;2022-09-02T01:25:15;101739.75;;;25.70;28.98
38616;BME280;24370;51.986;4.666;2022-09-02T01:27:42;101746.38;;;25.79;28.95
38616;BME280;24370;51.986;4.666;2022-09-02T01:30:12;101738.41;;;25.63;29.13
38616;BME280;24370;51.986;4.666;2022-09-02T01:32:38;101747.72;;;26.45;27.99
38616;BME280;24370;51.986;4.666;2022-09-02T01:35:04;101743.59;;;26.11;29.13
38616;BME280;24370;51.986;4.666;2022-09-02T01:37:30;101735.41;;;25.83;28.86
38616;BME280;24370;51.986;4.666;2022-09-02T01:39:56;101737.78;;;25.27;29.78
38616;BME280;24370;51.986;4.666;2022-09-02T01:42:22;101728.38;;;26.11;28.79
38616;BME280;24370;51.986;4.666;2022-09-02T01:44:47;101731.50;;;26.03;28.80
38616;BME280;24370;51.986;4.666;2022-09-02T01:47:18;101728.66;;;25.62;29.47
38616;BME280;24370;51.986;4.666;2022-09-02T01:49:44;101729.34;;;25.80;29.01
38616;BME280;24370;51.986;4.666;2022-09-02T01:52:11;101727.25;;;25.85;29.00
38616;BME280;24370;51.986;4.666;2022-09-02T01:54:37;101725.84;;;25.94;29.11
38616;BME280;24370;51.986;4.666;2022-09-02T01:57:02;101724.66;;;26.14;29.16
38616;BME280;24370;51.986;4.666;2022-09-02T01:59:28;101724.56;;;26.15;28.91
38616;BME280;24370;51.986;4.666;2022-09-02T02:01:54;101721.22;;;25.81;29.29
38616;BME280;24370;51.986;4.666;2022-09-02T02:04:19;101714.97;;;25.97;28.96
38616;BME280;24370;51.986;4.666;2022-09-02T02:06:46;101715.59;;;25.86;29.18
38616;BME280;24370;51.986;4.666;2022-09-02T02:09:13;101719.22;;;25.99;28.92
38616;BME280;24370;51.986;4.666;2022-09-02T02:11:38;101716.06;;;25.78;28.86
38616;BME280;24370;51.986;4.666;2022-09-02T02:14:05;101717.63;;;25.52;29.69
38616;BME280;24370;51.986;4.666;2022-09-02T02:16:30;101712.88;;;26.02;28.56
38616;BME280;24370;51.986;4.666;2022-09-02T02:18:56;101721.50;;;26.21;28.35
38616;BME280;24370;51.986;4.666;2022-09-02T02:21:22;101712.13;;;25.69;28.77
38616;BME280;24370;51.986;4.666;2022-09-02T02:23:48;101714.50;;;25.60;29.42
38616;BME280;24370;51.986;4.666;2022-09-02T02:26:14;101711.13;;;26.44;29.07
38616;BME280;24370;51.986;4.666;2022-09-02T02:28:39;101719.00;;;26.18;28.78
38616;BME280;24370;51.986;4.666;2022-09-02T02:31:05;101717.56;;;26.13;28.96
38616;BME280;24370;51.986;4.666;2022-09-02T02:33:31;101706.75;;;26.14;29.39
38616;BME280;24370;51.986;4.666;2022-09-02T02:35:56;101702.06;;;26.18;28.79
38616;BME280;24370;51.986;4.666;2022-09-02T02:38:22;101701.19;;;26.46;28.98
38616;BME280;24370;51.986;4.666;2022-09-02T02:40:48;101704.94;;;26.29;29.40
38616;BME280;24370;51.986;4.666;2022-09-02T02:43:14;101701.84;;;25.47;29.87
38616;BME280;24370;51.986;4.666;2022-09-02T02:45:40;101697.06;;;26.12;29.34
38616;BME280;24370;51.986;4.666;2022-09-02T02:48:05;101695.13;;;25.85;29.37
38616;BME280;24370;51.986;4.666;2022-09-02T02:50:31;101696.88;;;25.86;29.50
38616;BME280;24370;51.986;4.666;2022-09-02T02:52:57;101699.69;;;26.13;29.15
38616;BME280;24370;51.986;4.666;2022-09-02T02:55:26;101697.16;;;26.53;29.00
38616;BME280;24370;51.986;4.666;2022-09-02T02:57:52;101703.06;;;25.86;29.47
38616;BME280;24370;51.986;4.666;2022-09-02T03:00:29;101704.59;;;25.90;29.16
38616;BME280;24370;51.986;4.666;2022-09-02T03:03:02;101692.81;;;25.64;30.07
38616;BME280;24370;51.986;4.666;2022-09-02T03:05:29;101698.75;;;25.69;29.50
38616;BME280;24370;51.986;4.666;2022-09-02T03:07:55;101690.22;;;25.63;29.77
38616;BME280;24370;51.986;4.666;2022-09-02T03:10:21;101691.31;;;25.44;30.13
38616;BME280;24370;51.986;4.666;2022-09-02T03:12:47;101689.47;;;25.75;29.60
38616;BME280;24370;51.986;4.666;2022-09-02T03:15:15;101685.81;;;25.47;30.06
38616;BME280;24370;51.986;4.666;2022-09-02T03:17:45;101689.69;;;25.86;29.45
38616;BME280;24370;51.986;4.666;2022-09-02T03:20:11;101689.56;;;25.73;29.54
38616;BME280;24370;51.986;4.666;2022-09-02T03:22:37;101686.56;;;25.49;29.94
38616;BME280;24370;51.986;4.666;2022-09-02T03:25:07;101687.06;;;25.70;29.39
38616;BME280;24370;51.986;4.666;2022-09-02T03:27:33;101692.16;;;25.14;30.50
38616;BME280;24370;51.986;4.666;2022-09-02T03:29:59;101687.22;;;25.22;30.51
38616;BME280;24370;51.986;4.666;2022-09-02T03:32:25;101683.56;;;25.23;30.83
38616;BME280;24370;51.986;4.666;2022-09-02T03:34:52;101685.75;;;25.33;30.50
38616;BME280;24370;51.986;4.666;2022-09-02T03:37:18;101685.50;;;25.21;30.57
38616;BME280;24370;51.986;4.666;2022-09-02T03:39:43;101688.75;;;25.27;30.34
38616;BME280;24370;51.986;4.666;2022-09-02T03:42:09;101675.16;;;24.51;31.25
38616;BME280;24370;51.986;4.666;2022-09-02T03:44:34;101683.75;;;25.20;30.59
38616;BME280;24370;51.986;4.666;2022-09-02T03:47:00;101678.19;;;25.55;30.05
38616;BME280;24370;51.986;4.666;2022-09-02T03:49:25;101675.22;;;25.14;31.34
38616;BME280;24370;51.986;4.666;2022-09-02T03:51:54;101676.78;;;25.48;30.92
38616;BME280;24370;51.986;4.666;2022-09-02T03:54:19;101675.50;;;25.70;30.03
38616;BME280;24370;51.986;4.666;2022-09-02T03:56:45;101671.63;;;25.90;29.66
38616;BME280;24370;51.986;4.666;2022-09-02T03:59:10;101668.66;;;25.80;29.97
38616;BME280;24370;51.986;4.666;2022-09-02T04:01:36;101662.88;;;25.11;30.63
38616;BME280;24370;51.986;4.666;2022-09-02T04:04:03;101668.09;;;25.14;30.60
38616;BME280;24370;51.986;4.666;2022-09-02T04:06:29;101662.34;;;25.20;30.37
38616;BME280;24370;51.986;4.666;2022-09-02T04:08:55;101661.38;;;24.59;31.23
38616;BME280;24370;51.986;4.666;2022-09-02T04:11:21;101656.47;;;24.67;31.36
38616;BME280;24370;51.986;4.666;2022-09-02T04:13:49;101662.84;;;25.43;30.68
38616;BME280;24370;51.986;4.666;2022-09-02T04:16:18;101655.78;;;25.26;30.40
38616;BME280;24370;51.986;4.666;2022-09-02T04:18:44;101650.53;;;25.40;30.04
38616;BME280;24370;51.986;4.666;2022-09-02T04:21:09;101645.47;;;25.65;29.94
38616;BME280;24370;51.986;4.666;2022-09-02T04:23:35;101656.72;;;25.41;30.08
38616;BME280;24370;51.986;4.666;2022-09-02T04:26:07;101660.13;;;25.13;30.89
38616;BME280;24370;51.986;4.666;2022-09-02T04:28:33;101655.13;;;25.22;31.05
38616;BME280;24370;51.986;4.666;2022-09-02T04:30:59;101659.84;;;25.64;30.01
38616;BME280;24370;51.986;4.666;2022-09-02T04:33:27;101646.53;;;25.01;31.06
38616;BME280;24370;51.986;4.666;2022-09-02T04:35:52;101646.41;;;25.49;30.22
38616;BME280;24370;51.986;4.666;2022-09-02T04:38:17;101644.97;;;24.17;32.15
38616;BME280;24370;51.986;4.666;2022-09-02T04:40:45;101646.91;;;24.79;31.12
38616;BME280;24370;51.986;4.666;2022-09-02T04:43:12;101646.56;;;24.85;31.08
38616;BME280;24370;51.986;4.666;2022-09-02T04:45:43;101640.94;;;25.36;30.71
38616;BME280;24370;51.986;4.666;2022-09-02T04:48:09;101647.31;;;25.79;29.72
38616;BME280;24370;51.986;4.666;2022-09-02T04:50:36;101644.22;;;25.26;30.66
38616;BME280;24370;51.986;4.666;2022-09-02T04:53:03;101643.53;;;25.38;30.47
38616;BME280;24370;51.986;4.666;2022-09-02T04:55:29;101638.97;;;24.78;31.06
38616;BME280;24370;51.986;4.666;2022-09-02T04:57:54;101641.38;;;25.29;30.90
38616;BME280;24370;51.986;4.666;2022-09-02T05:00:20;101649.09;;;25.03;31.19
38616;BME280;24370;51.986;4.666;2022-09-02T05:02:45;101642.22;;;24.99;30.88
38616;BME280;24370;51.986;4.666;2022-09-02T05:05:11;101633.63;;;24.62;31.32
38616;BME280;24370;51.986;4.666;2022-09-02T05:07:38;101647.63;;;24.67;31.36
38616;BME280;24370;51.986;4.666;2022-09-02T05:10:04;101651.38;;;24.31;32.19
38616;BME280;24370;51.986;4.666;2022-09-02T05:12:31;101647.41;;;24.86;31.64
38616;BME280;24370;51.986;4.666;2022-09-02T05:14:56;101644.19;;;24.65;31.63
38616;BME280;24370;51.986;4.666;2022-09-02T05:17:24;101646.13;;;23.96;32.53
38616;BME280;24370;51.986;4.666;2022-09-02T05:19:51;101647.41;;;24.38;31.97
38616;BME280;24370;51.986;4.666;2022-09-02T05:22:16;101652.72;;;24.06;32.79
38616;BME280;24370;51.986;4.666;2022-09-02T05:24:42;101646.03;;;24.31;32.16
38616;BME280;24370;51.986;4.666;2022-09-02T05:27:08;101645.41;;;24.26;32.12
38616;BME280;24370;51.986;4.666;2022-09-02T05:29:34;101648.56;;;24.16;32.40
38616;BME280;24370;51.986;4.666;2022-09-02T05:31:59;101647.28;;;24.73;31.35
38616;BME280;24370;51.986;4.666;2022-09-02T05:34:25;101654.88;;;24.65;31.91
38616;BME280;24370;51.986;4.666;2022-09-02T05:36:50;101648.44;;;24.99;31.26
38616;BME280;24370;51.986;4.666;2022-09-02T05:39:16;101643.63;;;24.74;31.73
38616;BME280;24370;51.986;4.666;2022-09-02T05:41:41;101643.94;;;24.20;32.40
38616;BME280;24370;51.986;4.666;2022-09-02T05:44:06;101648.94;;;25.06;32.52
38616;BME280;24370;51.986;4.666;2022-09-02T05:46:32;101643.00;;;25.31;31.06
38616;BME280;24370;51.986;4.666;2022-09-02T05:48:58;101649.25;;;24.85;31.53
38616;BME280;24370;51.986;4.666;2022-09-02T05:51:36;101648.69;;;25.25;31.19
38616;BME280;24370;51.986;4.666;2022-09-02T05:54:05;101652.06;;;25.45;31.09
38616;BME280;24370;51.986;4.666;2022-09-02T05:56:30;101649.81;;;24.90;31.41
38616;BME280;24370;51.986;4.666;2022-09-02T05:58:56;101646.84;;;25.72;30.71
38616;BME280;24370;51.986;4.666;2022-09-02T06:01:23;101642.59;;;25.39;31.01
38616;BME280;24370;51.986;4.666;2022-09-02T06:03:48;101647.94;;;24.93;31.46
38616;BME280;24370;51.986;4.666;2022-09-02T06:06:16;101643.53;;;25.38;31.12
38616;BME280;24370;51.986;4.666;2022-09-02T06:08:43;101642.41;;;25.56;30.80
38616;BME280;24370;51.986;4.666;2022-09-02T06:11:10;101643.59;;;25.06;31.56
38616;BME280;24370;51.986;4.666;2022-09-02T06:13:38;101637.06;;;25.56;30.95
38616;BME280;24370;51.986;4.666;2022-09-02T06:16:04;101639.53;;;25.45;31.39
38616;BME280;24370;51.986;4.666;2022-09-02T06:18:33;101641.81;;;25.37;31.34
38616;BME280;24370;51.986;4.666;2022-09-02T06:20:58;101635.63;;;25.51;31.85
38616;BME280;24370;51.986;4.666;2022-09-02T06:23:25;101635.66;;;25.94;31.35
38616;BME280;24370;51.986;4.666;2022-09-02T06:25:51;101626.78;;;26.08;30.75
38616;BME280;24370;51.986;4.666;2022-09-02T06:28:16;101628.53;;;26.09;30.78
38616;BME280;24370;51.986;4.666;2022-09-02T06:30:44;101636.97;;;25.28;32.09
38616;BME280;24370;51.986;4.666;2022-09-02T06:33:10;101642.25;;;25.74;31.80
38616;BME280;24370;51.986;4.666;2022-09-02T06:35:39;101641.09;;;25.64;31.14
38616;BME280;24370;51.986;4.666;2022-09-02T06:38:04;101644.16;;;25.72;31.34
38616;BME280;24370;51.986;4.666;2022-09-02T06:40:30;101632.16;;;26.08;30.94
38616;BME280;24370;51.986;4.666;2022-09-02T06:42:55;101640.03;;;26.38;30.20
38616;BME280;24370;51.986;4.666;2022-09-02T06:45:21;101629.94;;;26.56;30.55
38616;BME280;24370;51.986;4.666;2022-09-02T06:47:48;101628.31;;;26.54;30.93
38616;BME280;24370;51.986;4.666;2022-09-02T06:50:14;101625.69;;;26.81;30.27
38616;BME280;24370;51.986;4.666;2022-09-02T06:52:39;101632.69;;;26.97;30.89
38616;BME280;24370;51.986;4.666;2022-09-02T06:55:05;101626.66;;;26.66;31.11
38616;BME280;24370;51.986;4.666;2022-09-02T06:57:31;101626.88;;;26.63;31.23
38616;BME280;24370;51.986;4.666;2022-09-02T06:59:57;101629.59;;;26.48;31.39
38616;BME280;24370;51.986;4.666;2022-09-02T07:02:23;101631.16;;;26.80;30.75
38616;BME280;24370;51.986;4.666;2022-09-02T07:04:48;101631.53;;;27.01;30.84
38616;BME280;24370;51.986;4.666;2022-09-02T07:07:34;101635.22;;;27.66;30.37
38616;BME280;24370;51.986;4.666;2022-09-02T07:10:00;101633.16;;;27.56;29.77
38616;BME280;24370;51.986;4.666;2022-09-02T07:12:26;101627.06;;;27.14;30.83
38616;BME280;24370;51.986;4.666;2022-09-02T07:14:51;101627.72;;;27.18;31.21
38616;BME280;24370;51.986;4.666;2022-09-02T07:17:17;101631.66;;;27.52;30.19
38616;BME280;24370;51.986;4.666;2022-09-02T07:19:46;101623.47;;;27.67;30.58
38616;BME280;24370;51.986;4.666;2022-09-02T07:22:12;101624.13;;;27.83;30.40
38616;BME280;24370;51.986;4.666;2022-09-02T07:24:37;101613.75;;;28.29;29.43
38616;BME280;24370;51.986;4.666;2022-09-02T07:27:03;101616.50;;;27.51;30.52
38616;BME280;24370;51.986;4.666;2022-09-02T07:29:30;101617.47;;;27.63;30.22
38616;BME280;24370;51.986;4.666;2022-09-02T07:31:56;101621.34;;;27.72;30.49
38616;BME280;24370;51.986;4.666;2022-09-02T07:34:22;101608.63;;;28.50;29.13
38616;BME280;24370;51.986;4.666;2022-09-02T07:36:48;101609.91;;;29.75;27.84
38616;BME280;24370;51.986;4.666;2022-09-02T07:39:14;101608.25;;;31.38;25.20
38616;BME280;24370;51.986;4.666;2022-09-02T07:41:43;101596.75;;;32.68;24.61
38616;BME280;24370;51.986;4.666;2022-09-02T07:44:09;101611.09;;;32.19;23.65
38616;BME280;24370;51.986;4.666;2022-09-02T07:46:35;101602.03;;;32.09;23.50
38616;BME280;24370;51.986;4.666;2022-09-02T07:49:04;101610.13;;;31.99;23.65
38616;BME280;24370;51.986;4.666;2022-09-02T07:51:32;101598.72;;;31.95;24.35
38616;BME280;24370;51.986;4.666;2022-09-02T07:54:03;101609.44;;;33.16;22.40
38616;BME280;24370;51.986;4.666;2022-09-02T07:56:29;101606.69;;;32.47;23.60
38616;BME280;24370;51.986;4.666;2022-09-02T07:58:55;101614.19;;;31.32;24.46
38616;BME280;24370;51.986;4.666;2022-09-02T08:01:20;101612.78;;;31.79;23.99
38616;BME280;24370;51.986;4.666;2022-09-02T08:03:47;101615.53;;;31.68;24.63
38616;BME280;24370;51.986;4.666;2022-09-02T08:06:12;101611.81;;;31.38;24.05
38616;BME280;24370;51.986;4.666;2022-09-02T08:08:39;101609.41;;;32.38;24.60
38616;BME280;24370;51.986;4.666;2022-09-02T08:11:06;101614.59;;;31.79;25.07
38616;BME280;24370;51.986;4.666;2022-09-02T08:13:32;101607.97;;;32.53;24.50
38616;BME280;24370;51.986;4.666;2022-09-02T08:15:57;101608.19;;;32.81;23.53
38616;BME280;24370;51.986;4.666;2022-09-02T08:18:23;101599.47;;;32.58;23.91
38616;BME280;24370;51.986;4.666;2022-09-02T08:20:49;101606.00;;;33.04;23.40
38616;BME280;24370;51.986;4.666;2022-09-02T08:23:15;101600.47;;;32.86;23.27
38616;BME280;24370;51.986;4.666;2022-09-02T08:25:41;101598.75;;;31.65;24.78
38616;BME280;24370;51.986;4.666;2022-09-02T08:28:07;101597.19;;;31.20;25.43
38616;BME280;24370;51.986;4.666;2022-09-02T08:30:33;101597.59;;;31.36;25.83
38616;BME280;24370;51.986;4.666;2022-09-02T08:32:58;101593.91;;;30.62;26.70
38616;BME280;24370;51.986;4.666;2022-09-02T08:35:24;101591.66;;;31.21;26.01
38616;BME280;24370;51.986;4.666;2022-09-02T08:37:50;101593.84;;;30.74;25.90
38616;BME280;24370;51.986;4.666;2022-09-02T08:40:18;101586.84;;;30.27;26.83
38616;BME280;24370;51.986;4.666;2022-09-02T08:42:49;101593.16;;;30.60;27.41
38616;BME280;24370;51.986;4.666;2022-09-02T08:45:35;101591.22;;;31.16;26.12
38616;BME280;24370;51.986;4.666;2022-09-02T08:48:21;101595.44;;;31.82;25.74
38616;BME280;24370;51.986;4.666;2022-09-02T08:50:51;101591.81;;;31.72;25.83
38616;BME280;24370;51.986;4.666;2022-09-02T08:53:30;101588.84;;;31.75;25.67
38616;BME280;24370;51.986;4.666;2022-09-02T08:55:58;101595.25;;;31.74;26.18
38616;BME280;24370;51.986;4.666;2022-09-02T08:58:30;101588.19;;;31.92;25.53
38616;BME280;24370;51.986;4.666;2022-09-02T09:01:28;101581.59;;;31.54;26.04
38616;BME280;24370;51.986;4.666;2022-09-02T09:07:17;101581.53;;;31.13;26.71
38616;BME280;24370;51.986;4.666;2022-09-02T09:17:24;101580.53;;;31.36;26.77
38616;BME280;24370;51.986;4.666;2022-09-02T09:19:54;101576.69;;;31.59;26.46
38616;BME280;24370;51.986;4.666;2022-09-02T09:22:28;101578.69;;;32.78;25.22
38616;BME280;24370;51.986;4.666;2022-09-02T09:24:55;101572.69;;;33.04;25.39
38616;BME280;24370;51.986;4.666;2022-09-02T09:27:22;101570.25;;;32.32;24.87
38616;BME280;24370;51.986;4.666;2022-09-02T09:29:48;101573.56;;;32.75;24.91
38616;BME280;24370;51.986;4.666;2022-09-02T09:37:36;101563.81;;;33.31;24.06
38616;BME280;24370;51.986;4.666;2022-09-02T09:42:43;101564.59;;;33.89;23.55
38616;BME280;24370;51.986;4.666;2022-09-02T09:45:19;101556.03;;;35.02;22.46
38616;BME280;24370;51.986;4.666;2022-09-02T09:48:11;101549.06;;;35.86;22.13
38616;BME280;24370;51.986;4.666;2022-09-02T09:50:39;101553.59;;;36.37;21.93
38616;BME280;24370;51.986;4.666;2022-09-02T09:53:25;101550.56;;;35.46;21.84
38616;BME280;24370;51.986;4.666;2022-09-02T09:56:02;101552.72;;;34.72;22.72
38616;BME280;24370;51.986;4.666;2022-09-02T10:01:16;101551.59;;;36.72;20.87
38616;BME280;24370;51.986;4.666;2022-09-02T10:08:57;101559.53;;;35.38;21.72
38616;BME280;24370;51.986;4.666;2022-09-02T10:11:28;101554.19;;;35.28;22.35
38616;BME280;24370;51.986;4.666;2022-09-02T10:14:03;101555.75;;;35.13;22.19
38616;BME280;24370;51.986;4.666;2022-09-02T10:19:48;101560.34;;;34.86;22.29
38616;BME280;24370;51.986;4.666;2022-09-02T10:25:20;101554.72;;;35.32;22.52
38616;BME280;24370;51.986;4.666;2022-09-02T10:30:50;101543.06;;;35.40;22.15
38616;BME280;24370;51.986;4.666;2022-09-02T10:33:48;101545.78;;;35.40;21.51
38616;BME280;24370;51.986;4.666;2022-09-02T10:41:47;101532.66;;;35.35;21.93
38616;BME280;24370;51.986;4.666;2022-09-02T10:47:35;101530.59;;;33.67;23.13
38616;BME280;24370;51.986;4.666;2022-09-02T10:50:21;101526.00;;;34.23;23.37
38616;BME280;24370;51.986;4.666;2022-09-02T10:53:32;101526.91;;;34.86;21.92
38616;BME280;24370;51.986;4.666;2022-09-02T10:56:12;101532.34;;;34.67;22.79
38616;BME280;24370;51.986;4.666;2022-09-02T11:06:40;101513.19;;;35.13;22.46
38616;BME280;24370;51.986;4.666;2022-09-02T11:09:11;101521.91;;;33.91;23.87
38616;BME280;24370;51.986;4.666;2022-09-02T11:11:54;101511.16;;;34.89;22.61
38616;BME280;24370;51.986;4.666;2022-09-02T11:14:52;101516.78;;;35.48;21.80
38616;BME280;24370;51.986;4.666;2022-09-02T11:23:15;101500.03;;;35.61;21.74
38616;BME280;24370;51.986;4.666;2022-09-02T11:25:54;101501.06;;;36.44;21.15
38616;BME280;24370;51.986;4.666;2022-09-02T11:28:45;101492.69;;;36.13;21.90
38616;BME280;24370;51.986;4.666;2022-09-02T11:31:21;101492.69;;;36.79;21.09
38616;BME280;24370;51.986;4.666;2022-09-02T11:33:57;101482.81;;;36.70;20.68
38616;BME280;24370;51.986;4.666;2022-09-02T11:36:25;101483.16;;;36.09;21.16
38616;BME280;24370;51.986;4.666;2022-09-02T11:39:02;101483.06;;;37.32;20.06
38616;BME280;24370;51.986;4.666;2022-09-02T11:47:28;101480.28;;;35.59;21.16
38616;BME280;24370;51.986;4.666;2022-09-02T11:55:24;101466.38;;;35.71;20.24
38616;BME280;24370;51.986;4.666;2022-09-02T11:57:54;101460.16;;;37.50;19.29
38616;BME280;24370;51.986;4.666;2022-09-02T12:07:56;101461.63;;;37.29;18.78
38616;BME280;24370;51.986;4.666;2022-09-02T12:13:10;101445.19;;;37.46;18.44
38616;BME280;24370;51.986;4.666;2022-09-02T12:15:37;101451.16;;;36.93;18.16
38616;BME280;24370;51.986;4.666;2022-09-02T12:21:10;101448.75;;;36.98;18.31
38616;BME280;24370;51.986;4.666;2022-09-02T12:28:49;101442.88;;;38.74;16.47
38616;BME280;24370;51.986;4.666;2022-09-02T12:36:51;101436.84;;;38.93;16.45
38616;BME280;24370;51.986;4.666;2022-09-02T12:39:43;101429.09;;;38.52;16.75
38616;BME280;24370;51.986;4.666;2022-09-02T12:44:56;101429.00;;;39.35;16.00
38616;BME280;24370;51.986;4.666;2022-09-02T12:53:25;101426.59;;;37.49;16.81
38616;BME280;24370;51.986;4.666;2022-09-02T12:55:59;101413.38;;;38.16;16.07
38616;BME280;24370;51.986;4.666;2022-09-02T12:58:34;101408.56;;;37.72;16.03
38616;BME280;24370;51.986;4.666;2022-09-02T13:07:10;101416.28;;;38.67;16.27
38616;BME280;24370;51.986;4.666;2022-09-02T13:10:07;101400.31;;;38.94;15.50
38616;BME280;24370;51.986;4.666;2022-09-02T13:13:11;101397.19;;;38.82;15.45
38616;BME280;24370;51.986;4.666;2022-09-02T13:26:29;101389.19;;;37.66;16.49
38616;BME280;24370;51.986;4.666;2022-09-02T13:32:20;101373.47;;;37.68;15.86
38616;BME280;24370;51.986;4.666;2022-09-02T13:34:49;101380.13;;;37.43;17.19
38616;BME280;24370;51.986;4.666;2022-09-02T13:39:57;101384.53;;;37.44;16.82
38616;BME280;24370;51.986;4.666;2022-09-02T13:42:26;101379.31;;;37.89;16.50
38616;BME280;24370;51.986;4.666;2022-09-02T13:45:15;101375.06;;;38.09;15.72
38616;BME280;24370;51.986;4.666;2022-09-02T13:47:42;101374.16;;;37.71;16.72
38616;BME280;24370;51.986;4.666;2022-09-02T13:50:10;101373.03;;;37.88;16.40
38616;BME280;24370;51.986;4.666;2022-09-02T13:52:37;101366.41;;;38.74;15.19
38616;BME280;24370;51.986;4.666;2022-09-02T13:55:05;101361.53;;;37.69;16.75
38616;BME280;24370;51.986;4.666;2022-09-02T13:57:32;101365.13;;;37.93;16.15
38616;BME280;24370;51.986;4.666;2022-09-02T13:59:59;101365.53;;;38.28;16.19
38616;BME280;24370;51.986;4.666;2022-09-02T14:02:33;101353.66;;;39.26;15.19
38616;BME280;24370;51.986;4.666;2022-09-02T14:07:50;101353.16;;;38.71;15.22
38616;BME280;24370;51.986;4.666;2022-09-02T14:10:19;101338.69;;;38.47;15.69
38616;BME280;24370;51.986;4.666;2022-09-02T14:12:47;101345.63;;;37.58;15.58
38616;BME280;24370;51.986;4.666;2022-09-02T14:15:14;101342.47;;;38.76;15.17
38616;BME280;24370;51.986;4.666;2022-09-02T14:17:40;101344.34;;;37.92;15.72
38616;BME280;24370;51.986;4.666;2022-09-02T14:20:16;101342.94;;;38.64;15.02
38616;BME280;24370;51.986;4.666;2022-09-02T14:22:43;101344.63;;;37.97;15.43
38616;BME280;24370;51.986;4.666;2022-09-02T14:25:13;101333.75;;;38.80;15.14
38616;BME280;24370;51.986;4.666;2022-09-02T14:27:47;101336.97;;;38.16;15.79
38616;BME280;24370;51.986;4.666;2022-09-02T14:30:25;101334.84;;;38.56;15.02
38616;BME280;24370;51.986;4.666;2022-09-02T14:33:14;101328.78;;;38.16;14.99
38616;BME280;24370;51.986;4.666;2022-09-02T14:35:40;101323.66;;;37.75;15.33
38616;BME280;24370;51.986;4.666;2022-09-02T14:38:05;101322.31;;;38.92;15.00
38616;BME280;24370;51.986;4.666;2022-09-02T14:40:39;101315.06;;;39.35;14.80
38616;BME280;24370;51.986;4.666;2022-09-02T14:43:14;101314.00;;;37.49;15.93
38616;BME280;24370;51.986;4.666;2022-09-02T14:45:44;101305.84;;;38.70;15.04
38616;BME280;24370;51.986;4.666;2022-09-02T14:48:20;101308.25;;;38.05;15.51
38616;BME280;24370;51.986;4.666;2022-09-02T14:50:46;101309.53;;;38.32;15.07
38616;BME280;24370;51.986;4.666;2022-09-02T14:53:19;101307.38;;;37.66;15.32
38616;BME280;24370;51.986;4.666;2022-09-02T14:55:55;101309.97;;;37.05;15.58
38616;BME280;24370;51.986;4.666;2022-09-02T14:58:23;101309.09;;;37.13;15.63
38616;BME280;24370;51.986;4.666;2022-09-02T15:00:51;101297.00;;;36.84;16.17
38616;BME280;24370;51.986;4.666;2022-09-02T15:03:18;101297.00;;;36.84;16.16
38616;BME280;24370;51.986;4.666;2022-09-02T15:05:44;101293.78;;;36.80;15.70
38616;BME280;24370;51.986;4.666;2022-09-02T15:08:11;101292.38;;;37.16;16.33